Time;durP1;ratioP1;P1;durP2;ratioP2;P2;SDS_P1;SDS_P2;PMS_P1;PMS_P2;Temp;Humidity;BMP_temperature;BMP_pressure;BME280_temperature;BME280_humidity;BME280_pressure;Samples;Min_cycle;Max_cycle;Signal;HPM_P1;HPM_P2
2022/05/17 00:02:08;;;;;;;205.85;74.50;;;;;;;;;;6308506;22;20022;-92
2022/05/17 00:04:35;;;;;;;195.35;71.78;;;;;;;;;;6309114;22;20002;-86
2022/05/17 00:07:01;;;;;;;177.43;67.43;;;;;;;;;;6336863;22;20002;-95
2022/05/17 00:09:28;;;;;;;181.80;68.07;;;;;;;;;;6335846;22;20063;-94
2022/05/17 00:11:56;;;;;;;154.43;62.55;;;;;;;;;;6308363;22;20006;-93
2022/05/17 00:14:22;;;;;;;156.93;63.75;;;;;;;;;;6335994;22;19999;-94
2022/05/17 00:16:48;;;;;;;201.20;73.18;;;;;;;;;;6335519;22;20006;-92
2022/05/17 00:19:19;;;;;;;230.88;78.80;;;;;;;;;;6335292;22;20339;-91
2022/05/17 00:21:45;;;;;;;220.98;77.85;;;;;;;;;;6335389;22;20006;-90
2022/05/17 00:24:12;;;;;;;238.98;81.47;;;;;;;;;;6335359;22;20432;-92
2022/05/17 00:26:38;;;;;;;205.55;74.30;;;;;;;;;;6307727;22;20035;-92
2022/05/17 00:29:05;;;;;;;205.73;74.05;;;;;;;;;;6309200;22;19995;-93
2022/05/17 00:31:31;;;;;;;169.35;64.78;;;;;;;;;;6336751;22;20007;-92
2022/05/17 00:33:57;;;;;;;186.65;69.32;;;;;;;;;;6335294;22;20492;-92
2022/05/17 00:36:24;;;;;;;250.75;84.38;;;;;;;;;;6307809;22;20017;-92
2022/05/17 00:38:50;;;;;;;222.20;77.43;;;;;;;;;;6308173;22;20034;-93
2022/05/17 00:41:17;;;;;;;214.00;75.72;;;;;;;;;;6307594;22;20438;-93
2022/05/17 00:46:48;;;;;;;225.98;78.47;;;;;;;;;;6335244;22;20071;-91
2022/05/17 00:49:23;;;;;;;214.07;75.55;;;;;;;;;;6336591;22;20002;-89
2022/05/17 00:51:49;;;;;;;233.38;80.00;;;;;;;;;;6336623;22;20025;-91
2022/05/17 00:54:18;;;;;;;243.23;82.72;;;;;;;;;;6347346;22;20011;-89
2022/05/17 00:56:44;;;;;;;;;;;;;;;;;;6363853;22;20057;-86
2022/05/17 00:59:10;;;;;;;263.70;87.53;;;;;;;;;;6336823;22;19891;-86
2022/05/17 01:01:37;;;;;;;248.15;83.07;;;;;;;;;;6363538;22;20010;-87
2022/05/17 01:04:07;;;;;;;234.93;80.13;;;;;;;;;;6335695;22;20013;-92
2022/05/17 01:06:38;;;;;;;247.05;82.65;;;;;;;;;;6337537;22;19998;-93
2022/05/17 01:09:05;;;;;;;229.75;79.90;;;;;;;;;;6337073;22;20037;-92
2022/05/17 01:11:31;;;;;;;223.73;77.72;;;;;;;;;;6335768;22;20005;-92
2022/05/17 01:16:42;;;;;;;245.15;82.85;;;;;;;;;;6335305;22;20009;-92
2022/05/17 01:19:09;;;;;;;228.30;79.65;;;;;;;;;;6336379;22;20009;-91
2022/05/17 01:21:35;;;;;;;260.87;87.10;;;;;;;;;;6308674;22;20015;-92
2022/05/17 01:24:01;;;;;;;249.98;83.60;;;;;;;;;;6334770;22;19995;-92
2022/05/17 01:26:29;;;;;;;282.13;91.70;;;;;;;;;;6335633;22;19998;-92
2022/05/17 01:28:55;;;;;;;303.95;96.30;;;;;;;;;;6335198;22;19995;-92
2022/05/17 01:31:21;;;;;;;321.17;100.90;;;;;;;;;;6335206;22;20006;-91
2022/05/17 01:33:48;;;;;;;340.27;103.30;;;;;;;;;;6335449;22;20001;-90
2022/05/17 01:36:16;;;;;;;324.00;100.55;;;;;;;;;;6307916;22;20015;-92
2022/05/17 01:38:50;;;;;;;344.80;105.68;;;;;;;;;;6335216;22;19999;-92
2022/05/17 01:41:16;;;;;;;353.33;106.28;;;;;;;;;;6335989;22;20078;-93
2022/05/17 01:43:42;;;;;;;349.20;105.20;;;;;;;;;;6335104;22;20437;-93
2022/05/17 01:46:09;;;;;;;391.15;114.25;;;;;;;;;;6308558;22;20007;-91
2022/05/17 01:48:36;;;;;;;379.83;112.95;;;;;;;;;;6307154;22;20010;-88
2022/05/17 01:51:02;;;;;;;368.92;110.30;;;;;;;;;;6306493;22;20007;-91
2022/05/17 01:53:28;;;;;;;398.30;117.18;;;;;;;;;;6334256;22;19994;-91
2022/05/17 01:55:56;;;;;;;393.42;116.18;;;;;;;;;;6335016;22;20042;-89
2022/05/17 01:58:22;;;;;;;419.23;120.30;;;;;;;;;;6334130;22;19995;-91
2022/05/17 02:00:48;;;;;;;408.13;119.13;;;;;;;;;;6334418;22;20014;-90
2022/05/17 02:03:14;;;;;;;452.75;127.85;;;;;;;;;;6334950;22;20074;-93
2022/05/17 02:05:41;;;;;;;434.75;123.82;;;;;;;;;;6308300;22;20003;-90
2022/05/17 02:08:07;;;;;;;458.55;129.15;;;;;;;;;;6308175;22;20064;-93
2022/05/17 02:10:33;;;;;;;475.88;131.73;;;;;;;;;;6335825;22;19998;-90
2022/05/17 02:12:59;;;;;;;533.35;147.73;;;;;;;;;;6339910;22;20030;-94
2022/05/17 02:15:26;;;;;;;520.13;142.93;;;;;;;;;;6343458;22;20408;-89
2022/05/17 02:17:52;;;;;;;515.70;144.32;;;;;;;;;;6335669;22;20006;-93
2022/05/17 02:20:19;;;;;;;531.72;145.90;;;;;;;;;;6335446;22;19994;-92
2022/05/17 02:22:45;;;;;;;490.75;137.55;;;;;;;;;;6307374;22;20466;-91
2022/05/17 02:25:12;;;;;;;509.48;139.68;;;;;;;;;;6335764;22;19999;-89
2022/05/17 02:27:38;;;;;;;495.23;137.70;;;;;;;;;;6335966;22;20003;-91
2022/05/17 02:30:05;;;;;;;514.20;141.23;;;;;;;;;;6307215;22;20006;-93
2022/05/17 02:32:34;;;;;;;536.95;149.40;;;;;;;;;;6307339;22;20010;-89
2022/05/17 02:35:00;;;;;;;;;;;;;;;;;;6335093;22;20003;-90
2022/05/17 02:37:26;;;;;;;546.53;153.13;;;;;;;;;;6307286;22;19899;-90
2022/05/17 02:39:52;;;;;;;548.30;154.02;;;;;;;;;;6307358;22;19999;-92
2022/05/17 02:42:18;;;;;;;548.13;153.75;;;;;;;;;;6307395;22;20017;-90
2022/05/17 02:44:44;;;;;;;556.15;157.68;;;;;;;;;;6307464;22;20018;-92
2022/05/17 02:47:11;;;;;;;551.72;159.65;;;;;;;;;;6336137;22;20427;-91
2022/05/17 02:49:40;;;;;;;574.38;174.48;;;;;;;;;;6307715;22;20034;-93
2022/05/17 02:52:06;;;;;;;693.42;246.65;;;;;;;;;;6335592;22;20022;-91
2022/05/17 02:54:32;;;;;;;679.58;229.10;;;;;;;;;;6307459;22;20060;-92
2022/05/17 02:56:58;;;;;;;806.45;323.33;;;;;;;;;;6307451;22;20343;-92
2022/05/17 02:59:25;;;;;;;785.35;302.17;;;;;;;;;;6307544;22;20022;-92
2022/05/17 03:01:51;;;;;;;1436.95;678.70;;;;;;;;;;6334921;22;20343;-92
2022/05/17 03:04:17;;;;;;;1206.90;563.55;;;;;;;;;;6307274;22;20041;-92
2022/05/17 03:06:44;;;;;;;1114.97;522.88;;;;;;;;;;6308594;22;20017;-90
2022/05/17 03:09:10;;;;;;;1107.05;510.38;;;;;;;;;;6308041;22;19999;-92
2022/05/17 03:11:42;;;;;;;1232.00;583.55;;;;;;;;;;6307810;22;20094;-91
2022/05/17 03:14:08;;;;;;;1206.72;567.63;;;;;;;;;;6306725;22;20395;-91
2022/05/17 03:16:34;;;;;;;1146.28;538.97;;;;;;;;;;6308880;22;20007;-90
2022/05/17 03:19:01;;;;;;;1075.13;494.90;;;;;;;;;;6336286;22;20327;-91
2022/05/17 03:21:27;;;;;;;1096.97;506.23;;;;;;;;;;6336660;22;20003;-91
2022/05/17 03:23:53;;;;;;;1033.85;458.98;;;;;;;;;;6311328;22;20119;-92
2022/05/17 03:26:20;;;;;;;954.65;420.35;;;;;;;;;;6336907;22;20077;-91
2022/05/17 03:28:46;;;;;;;822.50;326.88;;;;;;;;;;6309851;22;20423;-87
2022/05/17 03:31:12;;;;;;;874.63;349.80;;;;;;;;;;6337910;22;19999;-92
2022/05/17 03:33:39;;;;;;;775.85;291.40;;;;;;;;;;6309172;22;20342;-94
2022/05/17 03:36:11;;;;;;;790.55;297.58;;;;;;;;;;6310624;22;20007;-92
2022/05/17 03:38:38;;;;;;;782.10;295.23;;;;;;;;;;6309199;22;20030;-90
2022/05/17 03:41:07;;;;;;;794.72;301.98;;;;;;;;;;6323597;22;20097;-91
2022/05/17 03:43:36;;;;;;;797.42;302.05;;;;;;;;;;6335495;22;20003;-91
2022/05/17 03:46:02;;;;;;;796.85;311.23;;;;;;;;;;6313064;22;20006;-94
2022/05/17 03:48:29;;;;;;;796.22;304.27;;;;;;;;;;6338923;22;20003;-93
2022/05/17 03:50:55;;;;;;;825.17;310.23;;;;;;;;;;6310660;22;20038;-93
2022/05/17 03:53:22;;;;;;;807.47;303.95;;;;;;;;;;6336035;22;20431;-91
2022/05/17 03:55:48;;;;;;;782.72;290.50;;;;;;;;;;6335236;22;20025;-91
2022/05/17 03:58:14;;;;;;;771.92;282.17;;;;;;;;;;6336999;22;19999;-89
2022/05/17 04:00:40;;;;;;;773.30;279.48;;;;;;;;;;6308958;22;19999;-91
2022/05/17 04:03:06;;;;;;;774.72;280.48;;;;;;;;;;6307770;22;20033;-90
2022/05/17 04:05:32;;;;;;;737.10;260.45;;;;;;;;;;6339486;22;20005;-91
2022/05/17 04:07:58;;;;;;;726.13;254.82;;;;;;;;;;6346683;22;20331;-89
2022/05/17 04:10:27;;;;;;;702.72;241.75;;;;;;;;;;6348199;22;19995;-88
2022/05/17 04:13:02;;;;;;;;;;;;;;;;;;6342462;22;20006;-88
2022/05/17 04:15:32;;;;;;;729.28;251.35;;;;;;;;;;6348667;22;19899;-88
2022/05/17 04:17:58;;;;;;;743.78;251.13;;;;;;;;;;6347945;22;19999;-87
2022/05/17 04:20:26;;;;;;;746.40;248.32;;;;;;;;;;6348247;22;20003;-88
2022/05/17 04:22:54;;;;;;;742.63;245.75;;;;;;;;;;6321194;22;20010;-91
2022/05/17 04:25:22;;;;;;;733.72;235.23;;;;;;;;;;6347299;22;20078;-86
2022/05/17 04:27:49;;;;;;;755.92;241.27;;;;;;;;;;6340994;22;20007;-88
2022/05/17 04:30:15;;;;;;;740.13;231.85;;;;;;;;;;6311310;22;20006;-87
2022/05/17 04:32:42;;;;;;;725.88;224.65;;;;;;;;;;6339274;22;20454;-89
2022/05/17 04:35:08;;;;;;;730.47;224.32;;;;;;;;;;6336710;22;20079;-84
2022/05/17 04:37:34;;;;;;;733.70;225.43;;;;;;;;;;6335891;22;20003;-88
2022/05/17 04:40:02;;;;;;;706.03;213.43;;;;;;;;;;6338829;22;19998;-86
2022/05/17 04:42:28;;;;;;;750.65;225.90;;;;;;;;;;6339953;22;20007;-86
2022/05/17 04:44:54;;;;;;;728.75;220.18;;;;;;;;;;6336840;22;20014;-87
2022/05/17 04:47:20;;;;;;;724.72;215.57;;;;;;;;;;6335320;22;20463;-85
2022/05/17 04:49:46;;;;;;;730.22;219.45;;;;;;;;;;6336887;22;20048;-89
2022/05/17 04:52:12;;;;;;;731.95;220.48;;;;;;;;;;6335636;22;20003;-89
2022/05/17 04:54:38;;;;;;;736.50;222.07;;;;;;;;;;6338965;22;20001;-85
2022/05/17 04:57:05;;;;;;;739.97;223.95;;;;;;;;;;6311486;22;20003;-91
2022/05/17 04:59:31;;;;;;;753.33;228.70;;;;;;;;;;6341812;22;20002;-87
2022/05/17 05:01:57;;;;;;;746.22;225.30;;;;;;;;;;6336540;22;20439;-92
2022/05/17 05:04:23;;;;;;;742.58;223.98;;;;;;;;;;6338835;22;20004;-89
2022/05/17 05:06:49;;;;;;;753.47;225.93;;;;;;;;;;6309482;22;20002;-87
2022/05/17 05:09:17;;;;;;;767.33;232.43;;;;;;;;;;6337634;22;19998;-92
2022/05/17 05:11:43;;;;;;;806.83;247.60;;;;;;;;;;6335777;22;20030;-90
2022/05/17 05:14:09;;;;;;;821.65;252.20;;;;;;;;;;6334509;22;20048;-92
2022/05/17 05:16:37;;;;;;;818.22;250.68;;;;;;;;;;6335314;22;20007;-92
2022/05/17 05:19:03;;;;;;;839.28;257.67;;;;;;;;;;6339506;22;20018;-93
2022/05/17 05:21:29;;;;;;;828.65;252.45;;;;;;;;;;6338468;22;20007;-92
2022/05/17 05:23:55;;;;;;;837.95;256.02;;;;;;;;;;6334961;22;20006;-90
2022/05/17 05:26:22;;;;;;;830.90;251.15;;;;;;;;;;6335912;22;19999;-84
2022/05/17 05:28:48;;;;;;;830.60;251.27;;;;;;;;;;6308999;22;20339;-90
2022/05/17 05:31:15;;;;;;;844.30;255.88;;;;;;;;;;6308046;22;20007;-89
2022/05/17 05:33:41;;;;;;;857.15;259.25;;;;;;;;;;6335429;22;20312;-89
2022/05/17 05:36:08;;;;;;;850.00;258.00;;;;;;;;;;6334976;22;20010;-89
2022/05/17 05:38:34;;;;;;;848.47;256.90;;;;;;;;;;6334663;22;20026;-89
2022/05/17 05:41:00;;;;;;;844.67;254.35;;;;;;;;;;6334770;22;20001;-89
2022/05/17 05:43:27;;;;;;;819.05;246.40;;;;;;;;;;6334996;22;20507;-91
2022/05/17 05:45:53;;;;;;;813.05;244.18;;;;;;;;;;6335446;22;20503;-84
2022/05/17 05:48:19;;;;;;;820.58;245.85;;;;;;;;;;6337178;22;20045;-89
2022/05/17 05:50:47;;;;;;;813.20;242.32;;;;;;;;;;6307738;22;20003;-88
2022/05/17 05:53:13;;;;;;;814.08;244.23;;;;;;;;;;6307787;22;20024;-91
2022/05/17 05:55:43;;;;;;;817.80;243.70;;;;;;;;;;6335529;22;20331;-89
2022/05/17 05:58:10;;;;;;;831.67;249.48;;;;;;;;;;6336206;22;20347;-89
2022/05/17 06:00:36;;;;;;;831.72;247.90;;;;;;;;;;6335896;22;20030;-90
2022/05/17 06:03:03;;;;;;;838.70;249.98;;;;;;;;;;6337168;22;20014;-89
2022/05/17 06:05:30;;;;;;;842.88;250.13;;;;;;;;;;6336306;22;20018;-91
2022/05/17 06:07:56;;;;;;;841.38;249.00;;;;;;;;;;6308863;22;20045;-88
2022/05/17 06:10:22;;;;;;;849.47;250.77;;;;;;;;;;6310935;22;20092;-89
2022/05/17 06:12:49;;;;;;;856.83;252.45;;;;;;;;;;6340201;22;20462;-90
2022/05/17 06:15:15;;;;;;;865.03;254.48;;;;;;;;;;6346294;22;20007;-89
2022/05/17 06:17:42;;;;;;;878.33;259.05;;;;;;;;;;6337732;22;19999;-89
2022/05/17 06:20:11;;;;;;;888.35;262.15;;;;;;;;;;6337810;22;20046;-89
2022/05/17 06:22:38;;;;;;;879.50;258.83;;;;;;;;;;6308607;22;20015;-87
2022/05/17 06:25:05;;;;;;;884.05;259.27;;;;;;;;;;6336891;22;20023;-89
2022/05/17 06:27:31;;;;;;;895.55;261.83;;;;;;;;;;6339382;22;20415;-88
2022/05/17 06:29:57;;;;;;;890.90;260.20;;;;;;;;;;6340602;22;19999;-86
2022/05/17 06:32:23;;;;;;;899.25;262.08;;;;;;;;;;6346430;22;20050;-85
2022/05/17 06:34:49;;;;;;;883.03;257.92;;;;;;;;;;6346035;22;19998;-90
2022/05/17 06:37:15;;;;;;;894.28;260.33;;;;;;;;;;6338355;22;20264;-85
2022/05/17 06:39:42;;;;;;;905.80;262.77;;;;;;;;;;6335114;22;20052;-88
2022/05/17 06:42:08;;;;;;;902.38;263.60;;;;;;;;;;6335912;22;20007;-86
2022/05/17 06:44:35;;;;;;;915.95;266.88;;;;;;;;;;6338654;22;19995;-87
2022/05/17 06:47:01;;;;;;;917.55;266.90;;;;;;;;;;6335424;22;20005;-85
2022/05/17 06:49:28;;;;;;;922.97;268.10;;;;;;;;;;6335496;22;20071;-90
2022/05/17 06:51:57;;;;;;;920.90;266.15;;;;;;;;;;6337792;22;20003;-85
2022/05/17 06:54:23;;;;;;;924.03;268.27;;;;;;;;;;6338929;22;20005;-86
2022/05/17 06:56:49;;;;;;;938.42;271.65;;;;;;;;;;6339797;22;19999;-89
2022/05/17 06:59:15;;;;;;;945.53;273.00;;;;;;;;;;6340089;22;19998;-87
2022/05/17 07:01:41;;;;;;;953.78;277.90;;;;;;;;;;6308696;22;20332;-86
2022/05/17 07:04:07;;;;;;;950.58;276.88;;;;;;;;;;6310757;22;20090;-88
2022/05/17 07:06:33;;;;;;;977.38;284.10;;;;;;;;;;6337655;22;20073;-84
2022/05/17 07:08:59;;;;;;;966.72;279.30;;;;;;;;;;6338031;22;20006;-90
2022/05/17 07:14:09;;;;;;;993.55;287.55;;;;;;;;;;6337577;22;20014;-86
2022/05/17 07:16:36;;;;;;;989.45;286.08;;;;;;;;;;6338160;22;20002;-89
2022/05/17 07:19:02;;;;;;;997.63;288.73;;;;;;;;;;6340656;22;20052;-87
2022/05/17 07:21:28;;;;;;;1005.67;289.05;;;;;;;;;;6336785;22;20458;-85
2022/05/17 07:23:54;;;;;;;1014.95;291.02;;;;;;;;;;6338122;22;20034;-87
2022/05/17 07:26:20;;;;;;;998.13;286.42;;;;;;;;;;6336297;22;20003;-88
2022/05/17 07:28:47;;;;;;;1019.03;292.38;;;;;;;;;;6335966;22;19999;-87
2022/05/17 07:31:14;;;;;;;1085.13;309.27;;;;;;;;;;6336054;22;20034;-85
2022/05/17 07:33:40;;;;;;;1076.57;306.33;;;;;;;;;;6307520;22;20048;-86
2022/05/17 07:36:07;;;;;;;1084.30;307.40;;;;;;;;;;6335325;22;20006;-90
2022/05/17 07:38:34;;;;;;;8.43;2.72;;;;;;;;;;6335902;22;19995;-87
2022/05/17 07:41:00;;;;;;;6.28;2.22;;;;;;;;;;6335426;22;20006;-86
2022/05/17 07:43:26;;;;;;;1004.00;290.85;;;;;;;;;;6336623;22;20002;-86
2022/05/17 07:45:52;;;;;;;1058.20;299.17;;;;;;;;;;6335715;22;19998;-85
2022/05/17 07:48:22;;;;;;;1047.88;296.42;;;;;;;;;;6335163;22;20333;-86
2022/05/17 07:50:49;;;;;;;1062.80;302.77;;;;;;;;;;6335411;22;20415;-86
2022/05/17 07:53:15;;;;;;;1051.57;300.75;;;;;;;;;;6335663;22;20026;-87
2022/05/17 07:55:42;;;;;;;1071.68;303.38;;;;;;;;;;6307711;22;20006;-87
2022/05/17 07:58:09;;;;;;;1084.82;306.30;;;;;;;;;;6334945;22;20003;-87
2022/05/17 08:00:36;;;;;;;1061.57;300.33;;;;;;;;;;6307634;22;20007;-86
2022/05/17 08:03:04;;;;;;;1079.45;305.27;;;;;;;;;;6335110;22;20116;-86
2022/05/17 08:05:31;;;;;;;1105.18;311.92;;;;;;;;;;6308674;22;20052;-86
2022/05/17 08:07:58;;;;;;;1144.25;320.00;;;;;;;;;;6336902;22;19999;-91
2022/05/17 08:10:24;;;;;;;1131.38;316.90;;;;;;;;;;6335876;22;20044;-90
2022/05/17 08:12:50;;;;;;;1120.75;312.63;;;;;;;;;;6335559;22;20304;-90
2022/05/17 08:15:17;;;;;;;1123.72;314.20;;;;;;;;;;6335898;22;20003;-92
2022/05/17 08:17:43;;;;;;;1113.53;311.30;;;;;;;;;;6335365;22;20339;-89
2022/05/17 08:20:12;;;;;;;1126.32;313.30;;;;;;;;;;6336466;22;20007;-93
2022/05/17 08:22:42;;;;;;;1135.03;315.85;;;;;;;;;;6335449;22;20030;-87
2022/05/17 08:27:57;;;;;;;1146.50;319.55;;;;;;;;;;6335546;22;20501;-86
2022/05/17 08:30:24;;;;;;;1139.38;316.20;;;;;;;;;;6335850;22;20002;-90
2022/05/17 08:35:41;;;;;;;1162.90;323.42;;;;;;;;;;6335847;22;20053;-90
2022/05/17 08:38:07;;;;;;;1166.63;323.58;;;;;;;;;;6308533;22;20007;-87
2022/05/17 08:40:35;;;;;;;1160.18;320.40;;;;;;;;;;6336244;22;20006;-88
2022/05/17 08:43:07;;;;;;;1155.10;320.88;;;;;;;;;;6336915;22;20007;-85
2022/05/17 08:45:37;;;;;;;1157.72;321.48;;;;;;;;;;6337014;22;20038;-89
2022/05/17 08:48:05;;;;;;;1162.53;321.45;;;;;;;;;;6309071;22;20011;-89
2022/05/17 08:50:34;;;;;;;1154.70;319.83;;;;;;;;;;6337481;22;19995;-90
2022/05/17 08:53:00;;;;;;;1175.32;324.92;;;;;;;;;;6348421;22;19995;-84
2022/05/17 08:55:29;;;;;;;1170.30;323.27;;;;;;;;;;6355192;22;20051;-85
2022/05/17 08:57:57;;;;;;;1177.10;323.08;;;;;;;;;;6357818;22;20058;-85
2022/05/17 09:00:24;;;;;;;1174.72;323.42;;;;;;;;;;6351505;22;20045;-86
2022/05/17 09:02:59;;;;;;;1179.00;324.92;;;;;;;;;;6341264;22;20007;-87
2022/05/17 09:05:36;;;;;;;1155.78;318.77;;;;;;;;;;6334873;22;20011;-87
2022/05/17 09:08:09;;;;;;;1185.25;325.23;;;;;;;;;;6336150;22;20002;-87
2022/05/17 09:10:43;;;;;;;1174.10;322.48;;;;;;;;;;6335871;22;20505;-89
2022/05/17 09:13:20;;;;;;;1173.82;319.73;;;;;;;;;;6308806;22;20316;-89
2022/05/17 09:15:46;;;;;;;1147.68;315.55;;;;;;;;;;6336203;22;19998;-86
2022/05/17 09:18:16;;;;;;;1156.50;319.00;;;;;;;;;;6335722;22;20059;-86
2022/05/17 09:20:43;;;;;;;1145.07;314.77;;;;;;;;;;6335665;22;20450;-88
2022/05/17 09:23:10;;;;;;;1157.97;318.50;;;;;;;;;;6339153;22;20011;-89
2022/05/17 09:25:50;;;;;;;1150.15;315.38;;;;;;;;;;6336279;22;20435;-86
2022/05/17 09:28:20;;;;;;;1152.88;316.73;;;;;;;;;;6335082;22;20030;-86
2022/05/17 09:30:47;;;;;;;1161.63;318.10;;;;;;;;;;6335091;22;20362;-85
2022/05/17 09:33:15;;;;;;;1165.03;318.02;;;;;;;;;;6306716;22;20128;-87
2022/05/17 09:36:01;;;;;;;1162.55;317.92;;;;;;;;;;6334402;22;20446;-85
2022/05/17 09:38:47;;;;;;;1147.93;315.27;;;;;;;;;;6307091;22;20474;-90
2022/05/17 09:41:16;;;;;;;1155.55;317.77;;;;;;;;;;6307824;22;20014;-91
2022/05/17 09:43:52;;;;;;;1136.32;312.63;;;;;;;;;;6307668;22;19999;-88
2022/05/17 09:46:28;;;;;;;1156.78;314.60;;;;;;;;;;6338064;22;20030;-88
2022/05/17 09:54:41;;;;;;;1148.10;312.02;;;;;;;;;;6335426;22;20018;-87
2022/05/17 09:57:15;;;;;;;1219.32;328.23;;;;;;;;;;6336491;22;20007;-90
2022/05/17 09:59:42;;;;;;;1199.97;325.35;;;;;;;;;;6337198;22;20508;-87
2022/05/17 10:02:30;;;;;;;1203.18;324.67;;;;;;;;;;6337424;22;20034;-89
2022/05/17 10:04:57;;;;;;;1193.88;322.08;;;;;;;;;;6336902;22;20311;-85
2022/05/17 10:07:25;;;;;;;1156.47;313.17;;;;;;;;;;6339338;22;20021;-86
2022/05/17 10:09:51;;;;;;;1139.60;309.23;;;;;;;;;;6335981;22;19999;-88
2022/05/17 10:12:21;;;;;;;1164.18;312.30;;;;;;;;;;6309205;22;20002;-86
2022/05/17 10:14:49;;;;;;;1125.47;305.95;;;;;;;;;;6311489;22;20029;-92
2022/05/17 10:17:26;;;;;;;1128.28;307.25;;;;;;;;;;6339008;22;20034;-93
2022/05/17 10:20:00;;;;;;;1135.35;308.33;;;;;;;;;;6310769;22;20003;-87
2022/05/17 10:22:34;;;;;;;1138.15;308.80;;;;;;;;;;6340592;22;20011;-89
2022/05/17 10:25:06;;;;;;;1121.18;304.77;;;;;;;;;;6338993;22;20046;-91
2022/05/17 10:27:41;;;;;;;1109.43;301.25;;;;;;;;;;6340760;22;20050;-93
2022/05/17 10:30:20;;;;;;;1109.57;300.20;;;;;;;;;;6336599;22;20450;-86
2022/05/17 10:32:53;;;;;;;1117.05;304.08;;;;;;;;;;6335795;22;20003;-87
2022/05/17 10:35:27;;;;;;;1153.72;311.85;;;;;;;;;;6335490;22;20056;-87
2022/05/17 10:37:56;;;;;;;1131.97;307.25;;;;;;;;;;6335886;22;20001;-86
2022/05/17 10:40:34;;;;;;;1162.47;315.55;;;;;;;;;;6309718;22;20003;-86
2022/05/17 10:43:00;;;;;;;1128.72;306.45;;;;;;;;;;6336664;22;20011;-91
2022/05/17 10:45:35;;;;;;;1141.78;309.00;;;;;;;;;;6336309;22;20435;-90
2022/05/17 10:48:20;;;;;;;1141.30;309.25;;;;;;;;;;6336489;22;20081;-87
2022/05/17 10:50:46;;;;;;;1123.88;304.92;;;;;;;;;;6310666;22;20021;-87
2022/05/17 10:53:18;;;;;;;1145.97;308.80;;;;;;;;;;6336420;22;19995;-89
2022/05/17 10:55:53;;;;;;;1137.07;306.10;;;;;;;;;;6337291;22;20061;-86
2022/05/17 10:58:33;;;;;;;1130.20;304.50;;;;;;;;;;6339146;22;19995;-87
2022/05/17 11:01:17;;;;;;;1103.63;298.05;;;;;;;;;;6339087;22;20225;-86
2022/05/17 11:03:49;;;;;;;1122.32;300.20;;;;;;;;;;6336061;22;20002;-87
2022/05/17 11:06:32;;;;;;;1068.28;286.77;;;;;;;;;;6335311;22;20044;-86
2022/05/17 11:09:01;;;;;;;1085.72;292.42;;;;;;;;;;6335875;22;20427;-86
2022/05/17 11:11:28;;;;;;;1106.60;296.58;;;;;;;;;;6335893;22;20003;-87
2022/05/17 11:14:00;;;;;;;1135.00;302.45;;;;;;;;;;6335967;22;20014;-87
2022/05/17 11:16:29;;;;;;;1100.75;295.48;;;;;;;;;;6307253;22;20444;-90
2022/05/17 11:18:59;;;;;;;1108.03;297.05;;;;;;;;;;6336967;22;19999;-85
2022/05/17 11:21:28;;;;;;;1113.60;299.23;;;;;;;;;;6335815;22;20007;-86
2022/05/17 11:24:14;;;;;;;1094.05;294.85;;;;;;;;;;6339641;22;19998;-87
2022/05/17 11:26:58;;;;;;;1074.10;289.10;;;;;;;;;;6349079;22;20049;-86
2022/05/17 11:29:24;;;;;;;1074.93;289.63;;;;;;;;;;6320308;22;20030;-86
2022/05/17 11:31:50;;;;;;;1059.45;285.25;;;;;;;;;;6354284;22;20006;-87
2022/05/17 11:34:39;;;;;;;1082.55;289.50;;;;;;;;;;6353191;22;20003;-85
2022/05/17 11:37:08;;;;;;;1069.53;287.20;;;;;;;;;;6355405;22;20014;-86
2022/05/17 11:39:40;;;;;;;1066.82;286.23;;;;;;;;;;6355631;22;20022;-85
2022/05/17 11:42:24;;;;;;;1078.65;289.02;;;;;;;;;;6353634;22;20014;-86
2022/05/17 11:44:50;;;;;;;1081.95;290.05;;;;;;;;;;6348674;22;19999;-93
2022/05/17 11:47:35;;;;;;;1076.43;289.00;;;;;;;;;;6350301;22;20006;-89
2022/05/17 11:50:18;;;;;;;1052.43;282.63;;;;;;;;;;6342136;22;20987;-85
2022/05/17 11:52:45;;;;;;;1087.25;291.67;;;;;;;;;;6341732;22;20113;-87
2022/05/17 11:55:13;;;;;;;1093.43;291.17;;;;;;;;;;6346953;22;20002;-88
2022/05/17 11:57:41;;;;;;;1049.75;281.17;;;;;;;;;;6346691;22;20003;-91
2022/05/17 12:00:32;;;;;;;1079.97;285.77;;;;;;;;;;6344362;22;20050;-88
2022/05/17 12:03:02;;;;;;;1071.80;285.58;;;;;;;;;;6319740;22;20014;-89
2022/05/17 12:05:53;;;;;;;1054.13;281.92;;;;;;;;;;6340106;22;19995;-87
2022/05/17 12:08:28;;;;;;;1047.80;280.15;;;;;;;;;;6317612;22;20002;-88
2022/05/17 12:11:12;;;;;;;1097.10;294.25;;;;;;;;;;6336568;22;19999;-86
2022/05/17 12:13:58;;;;;;;1073.30;287.02;;;;;;;;;;6336731;22;20003;-87
2022/05/17 12:16:26;;;;;;;1086.63;290.27;;;;;;;;;;6308790;22;20348;-87
2022/05/17 12:18:55;;;;;;;1076.93;287.52;;;;;;;;;;6308717;22;20003;-89
2022/05/17 12:21:41;;;;;;;1059.53;282.80;;;;;;;;;;6337640;22;20427;-88
2022/05/17 12:24:26;;;;;;;1081.15;286.90;;;;;;;;;;6336143;22;20022;-85
2022/05/17 12:27:15;;;;;;;1068.82;286.33;;;;;;;;;;6306888;22;20330;-86
2022/05/17 12:32:32;;;;;;;1054.47;282.45;;;;;;;;;;6335101;22;20089;-89
2022/05/17 12:34:59;;;;;;;1071.00;285.93;;;;;;;;;;6335336;22;20017;-87
2022/05/17 12:37:27;;;;;;;1095.82;293.15;;;;;;;;;;6335142;22;20248;-88
2022/05/17 12:43:03;;;;;;;1024.05;275.10;;;;;;;;;;6334985;22;20057;-86
2022/05/17 12:45:59;;;;;;;1032.60;276.48;;;;;;;;;;6335752;22;20496;-86
2022/05/17 12:48:35;;;;;;;1046.60;280.88;;;;;;;;;;6303852;22;20479;-86
2022/05/17 12:51:02;;;;;;;1046.43;280.65;;;;;;;;;;6335671;22;20010;-86
2022/05/17 12:53:45;;;;;;;1119.55;296.67;;;;;;;;;;6335039;22;19995;-88
2022/05/17 12:56:29;;;;;;;1057.82;281.90;;;;;;;;;;6336437;22;20308;-87
2022/05/17 12:59:00;;;;;;;1083.10;288.73;;;;;;;;;;6335202;22;20339;-87
2022/05/17 13:01:31;;;;;;;1072.50;287.08;;;;;;;;;;6335543;22;20003;-86
2022/05/17 13:03:59;;;;;;;1041.95;278.95;;;;;;;;;;6336079;22;20423;-86
2022/05/17 13:06:35;;;;;;;1104.72;292.38;;;;;;;;;;6335857;22;20005;-87
2022/05/17 13:09:01;;;;;;;1116.93;296.15;;;;;;;;;;6336535;22;19998;-86
2022/05/17 13:11:29;;;;;;;1100.82;291.20;;;;;;;;;;6336629;22;19999;-88
2022/05/17 13:14:30;;;;;;;1126.35;298.20;;;;;;;;;;6337687;22;20347;-86
2022/05/17 13:17:07;;;;;;;1124.60;297.60;;;;;;;;;;6182330;23;20024;-87
2022/05/17 13:19:34;;;;;;;1135.18;298.92;;;;;;;;;;6317833;22;20078;-86
2022/05/17 13:22:00;;;;;;;1123.57;297.63;;;;;;;;;;6339955;22;20029;-90
2022/05/17 13:24:38;;;;;;;1110.32;294.42;;;;;;;;;;6339442;22;19995;-92
2022/05/17 13:27:05;;;;;;;1132.90;302.10;;;;;;;;;;6338539;22;20449;-94
2022/05/17 13:29:36;;;;;;;1132.38;301.02;;;;;;;;;;6337709;22;20048;-88
2022/05/17 13:32:06;;;;;;;1106.22;293.60;;;;;;;;;;6338682;22;19995;-85
2022/05/17 13:34:34;;;;;;;1108.07;295.52;;;;;;;;;;6309067;22;20458;-87
2022/05/17 13:37:21;;;;;;;1158.25;307.92;;;;;;;;;;6335922;22;20003;-86
2022/05/17 13:39:48;;;;;;;1180.55;313.63;;;;;;;;;;6309930;22;20014;-86
2022/05/17 13:42:14;;;;;;;;;;;;;;;;;;6339500;22;20324;-86
2022/05/17 13:44:40;;;;;;;1080.18;289.70;;;;;;;;;;6336784;22;19956;-88
2022/05/17 13:47:15;;;;;;;1083.13;290.77;;;;;;;;;;6339477;22;20005;-88
2022/05/17 13:49:47;;;;;;;1090.90;291.17;;;;;;;;;;6347686;22;19999;-88
2022/05/17 13:52:16;;;;;;;1064.80;284.75;;;;;;;;;;6349451;22;20006;-93
2022/05/17 13:54:43;;;;;;;1070.05;286.02;;;;;;;;;;6344510;22;20044;-87
2022/05/17 13:57:09;;;;;;;1077.35;286.90;;;;;;;;;;6337316;22;20011;-87
2022/05/17 13:59:35;;;;;;;1077.60;286.30;;;;;;;;;;6308319;22;20003;-87
2022/05/17 14:02:03;;;;;;;1062.07;282.10;;;;;;;;;;6306802;22;20045;-86
2022/05/17 14:04:29;;;;;;;;;;;;;;;;;;6336264;22;19999;-87
2022/05/17 14:07:00;;;;;;;1053.63;282.15;;;;;;;;;;6335782;22;20036;-87
2022/05/17 14:12:18;;;;;;;1075.88;286.02;;;;;;;;;;6355974;22;20017;-85
2022/05/17 14:14:51;;;;;;;1064.60;283.08;;;;;;;;;;6358442;22;19998;-86
2022/05/17 14:17:21;;;;;;;1085.50;288.45;;;;;;;;;;6363215;22;19979;-87
2022/05/17 14:19:51;;;;;;;1132.25;297.85;;;;;;;;;;6346569;22;20006;-87
2022/05/17 14:22:18;;;;;;;1159.88;306.10;;;;;;;;;;6338366;22;20041;-89
2022/05/17 14:24:44;;;;;;;1187.33;312.70;;;;;;;;;;6334374;22;19995;-89
2022/05/17 14:27:10;;;;;;;1178.45;312.83;;;;;;;;;;6334141;22;20572;-87
2022/05/17 14:29:37;;;;;;;1192.65;316.80;;;;;;;;;;6333726;22;19995;-86